createdAt,value
2019-05-01T00:01:30.243Z,94.20
2019-05-01T00:04:39.202Z,94.50
2019-05-01T00:07:21.881Z,94.50
2019-05-01T00:09:59.139Z,94.60
2019-05-01T00:12:34.520Z,94.60
2019-05-01T00:15:10.331Z,94.60
2019-05-01T00:17:45.789Z,94.70
2019-05-01T00:20:21.139Z,94.60
2019-05-01T00:22:56.473Z,95.00
2019-05-01T00:25:31.893Z,94.90
2019-05-01T00:28:07.628Z,94.70
2019-05-01T00:30:43.090Z,94.60
2019-05-01T00:33:18.593Z,94.60
2019-05-01T00:35:54.051Z,94.70
2019-05-01T00:38:29.357Z,94.80
2019-05-01T00:41:05.002Z,94.60
2019-05-01T00:43:40.343Z,95.00
2019-05-01T00:46:15.704Z,95.30
2019-05-01T00:48:51.162Z,94.80
2019-05-01T00:51:26.646Z,95.00
2019-05-01T00:54:02.060Z,95.00
2019-05-01T00:56:56.462Z,94.90
2019-05-01T00:59:44.724Z,95.10
2019-05-01T01:02:41.252Z,95.10
2019-05-01T01:05:20.616Z,95.30
2019-05-01T01:07:56.074Z,95.70
2019-05-01T01:10:38.483Z,95.40
2019-05-01T01:13:13.868Z,95.50
2019-05-01T01:15:49.160Z,95.50
2019-05-01T01:18:25.568Z,95.40
2019-05-01T01:21:00.932Z,95.50
2019-05-01T01:23:36.602Z,95.30
2019-05-01T01:26:11.985Z,95.30
2019-05-01T01:28:47.589Z,95.30
2019-05-01T01:31:22.988Z,95.50
2019-05-01T01:33:58.419Z,95.20
2019-05-01T01:36:33.755Z,95.30
2019-05-01T01:39:09.303Z,95.20
2019-05-01T01:41:45.773Z,95.10
2019-05-01T01:44:31.161Z,95.40
2019-05-01T01:47:06.553Z,95.30
2019-05-01T01:49:43.603Z,95.20
2019-05-01T01:52:19.140Z,95.50
2019-05-01T01:54:55.359Z,95.20
2019-05-01T01:57:31.340Z,95.30
2019-05-01T02:00:08.616Z,95.60
2019-05-01T02:02:51.036Z,95.50
2019-05-01T02:05:29.746Z,95.80
2019-05-01T02:08:05.419Z,95.50
2019-05-01T02:10:43.006Z,95.60
2019-05-01T02:13:17.941Z,95.70
2019-05-01T02:15:53.599Z,95.60
2019-05-01T02:18:29.038Z,95.60
2019-05-01T02:21:04.404Z,95.70
2019-05-01T02:23:39.786Z,96.20
2019-05-01T02:26:16.882Z,96.30
2019-05-01T02:29:20.256Z,96.20
2019-05-01T02:31:57.546Z,96.40
2019-05-01T02:34:33.013Z,96.00
2019-05-01T02:37:11.118Z,96.00
2019-05-01T02:39:48.543Z,96.10
2019-05-01T02:42:28.284Z,96.10
2019-05-01T02:45:05.645Z,96.30
2019-05-01T02:47:44.071Z,95.80
2019-05-01T02:50:21.512Z,95.90
2019-05-01T02:52:57.049Z,96.00
2019-05-01T02:55:38.797Z,96.10
2019-05-01T02:58:14.737Z,96.10
2019-05-01T03:00:50.149Z,96.20
2019-05-01T03:03:25.746Z,96.00
2019-05-01T03:06:02.261Z,95.90
2019-05-01T03:08:39.128Z,95.90
2019-05-01T03:11:14.437Z,96.10
2019-05-01T03:13:52.373Z,95.90
2019-05-01T03:16:27.887Z,95.90
2019-05-01T03:19:06.803Z,95.90
2019-05-01T03:21:47.723Z,95.70
2019-05-01T03:24:25.296Z,95.50
2019-05-01T03:27:00.854Z,95.90
2019-05-01T03:29:36.541Z,96.10
2019-05-01T03:32:18.231Z,96.00
2019-05-01T03:34:53.308Z,95.80
2019-05-01T03:37:31.765Z,95.80
2019-05-01T03:40:07.505Z,95.70
2019-05-01T03:42:43.122Z,95.90
2019-05-01T03:45:18.819Z,96.20
2019-05-01T03:47:54.788Z,96.10
2019-05-01T03:50:30.210Z,96.30
2019-05-01T03:53:05.703Z,96.30
2019-05-01T03:55:41.473Z,96.00
2019-05-01T03:58:17.314Z,96.40
2019-05-01T04:01:24.023Z,96.60
2019-05-01T04:04:06.058Z,96.30
2019-05-01T04:06:41.689Z,96.40
2019-05-01T04:09:17.178Z,95.90
2019-05-01T04:11:52.541Z,95.90
2019-05-01T04:14:27.959Z,96.10
2019-05-01T04:17:18.800Z,96.00
2019-05-01T04:19:55.171Z,96.20
2019-05-01T04:22:30.737Z,96.40
2019-05-01T04:25:06.642Z,96.20
2019-05-01T04:27:43.999Z,96.50
2019-05-01T04:30:31.928Z,96.90
2019-05-01T04:33:12.730Z,97.10
2019-05-01T04:35:53.481Z,96.70
2019-05-01T04:38:28.933Z,96.90
2019-05-01T04:41:04.404Z,96.80
2019-05-01T04:43:40.594Z,96.90
2019-05-01T04:46:16.377Z,97.00
2019-05-01T04:48:51.879Z,96.70
2019-05-01T04:51:27.697Z,96.50
2019-05-01T04:54:03.446Z,96.70
2019-05-01T04:56:38.761Z,96.70
2019-05-01T04:59:14.570Z,96.60
2019-05-01T05:01:56.960Z,96.40
2019-05-01T05:04:32.223Z,96.80
2019-05-01T05:07:07.980Z,96.90
2019-05-01T05:09:44.688Z,97.10
2019-05-01T05:12:37.832Z,97.20
2019-05-01T05:15:38.074Z,97.10
2019-05-01T05:18:14.172Z,97.10
2019-05-01T05:20:50.190Z,97.40
2019-05-01T05:23:25.916Z,97.60
2019-05-01T05:26:01.526Z,97.60
2019-05-01T05:28:38.601Z,97.60
2019-05-01T05:31:14.660Z,97.60
2019-05-01T05:33:50.210Z,97.60
2019-05-01T05:36:28.226Z,97.80
2019-05-01T05:39:18.687Z,97.80
2019-05-01T05:41:55.966Z,98.20
2019-05-01T05:44:31.458Z,98.30
2019-05-01T05:47:07.141Z,98.90
2019-05-01T05:49:42.576Z,98.90
2019-05-01T05:52:40.077Z,99.10
2019-05-01T05:55:27.491Z,99.00
2019-05-01T05:58:21.617Z,99.30
2019-05-01T06:01:34.083Z,99.40
2019-05-01T06:04:28.702Z,99.40
2019-05-01T06:07:24.490Z,99.30
2019-05-01T06:10:23.150Z,99.60
2019-05-01T06:13:32.425Z,99.70
2019-05-01T06:16:17.437Z,99.70
2019-05-01T06:19:14.595Z,99.90
2019-05-01T06:22:26.337Z,99.90
2019-05-01T06:25:21.312Z,99.90
2019-05-01T06:27:50.896Z,99.90
2019-05-01T06:30:26.342Z,99.90
2019-05-01T06:33:04.207Z,99.80
2019-05-01T06:35:39.432Z,99.80
2019-05-01T06:38:17.477Z,99.60
2019-05-01T06:40:58.145Z,99.80
2019-05-01T06:44:13.222Z,99.60
2019-05-01T06:47:10.940Z,99.90
2019-05-01T06:50:01.267Z,99.30
2019-05-01T06:52:39.922Z,99.00
2019-05-01T06:55:15.484Z,98.80
2019-05-01T06:57:51.206Z,99.10
2019-05-01T07:00:26.670Z,99.10
2019-05-01T07:03:06.037Z,98.60
2019-05-01T07:05:40.036Z,98.60
2019-05-01T07:08:24.377Z,98.20
2019-05-01T07:10:52.883Z,98.00
2019-05-01T07:13:42.207Z,97.80
2019-05-01T07:16:17.664Z,97.40
2019-05-01T07:18:57.958Z,97.00
2019-05-01T07:21:32.814Z,96.50
2019-05-01T07:24:09.267Z,96.00
2019-05-01T07:26:47.991Z,96.10
2019-05-01T07:29:23.495Z,95.60
2019-05-01T07:32:01.707Z,94.50
2019-05-01T07:34:36.019Z,95.40
2019-05-01T07:37:11.771Z,93.60
2019-05-01T07:39:50.011Z,93.40
2019-05-01T07:42:31.639Z,92.90
2019-05-01T07:45:26.657Z,93.20
2019-05-01T07:48:05.641Z,93.10
2019-05-01T07:50:39.550Z,92.80
2019-05-01T07:53:14.996Z,92.80
2019-05-01T07:55:52.720Z,93.00
2019-05-01T07:58:27.874Z,92.30
2019-05-01T08:01:13.038Z,92.00
2019-05-01T08:03:48.339Z,92.80
2019-05-01T08:06:23.744Z,92.30
2019-05-01T08:09:11.256Z,92.70
2019-05-01T08:11:46.025Z,92.20
2019-05-01T08:14:24.368Z,92.30
2019-05-01T08:16:59.750Z,92.20
2019-05-01T08:19:50.048Z,92.00
2019-05-01T08:22:39.073Z,91.60
2019-05-01T08:25:14.774Z,92.30
2019-05-01T08:28:09.392Z,91.00
2019-05-01T08:31:06.556Z,91.50
2019-05-01T08:33:59.661Z,92.60
2019-05-01T08:36:35.042Z,91.30
2019-05-01T08:39:12.404Z,91.20
2019-05-01T08:41:47.703Z,91.20
2019-05-01T08:44:24.858Z,91.00
2019-05-01T08:47:25.639Z,90.30
2019-05-01T08:50:24.595Z,90.20
2019-05-01T08:52:56.021Z,90.50
2019-05-01T08:55:34.079Z,90.60
2019-05-01T08:58:13.992Z,90.20
2019-05-01T09:00:46.774Z,90.10
2019-05-01T09:03:22.191Z,88.90
2019-05-01T09:05:58.975Z,90.00
2019-05-01T09:08:34.439Z,90.00
2019-05-01T09:11:09.915Z,87.10
2019-05-01T09:13:45.349Z,87.50
2019-05-01T09:16:23.397Z,88.30
2019-05-01T09:18:58.001Z,88.50
2019-05-01T09:21:37.642Z,89.30
2019-05-01T09:24:11.462Z,87.10
2019-05-01T09:26:54.432Z,86.50
2019-05-01T09:29:38.490Z,86.00
2019-05-01T09:32:13.953Z,85.70
2019-05-01T09:34:49.391Z,85.60
2019-05-01T09:37:25.234Z,85.70
2019-05-01T09:40:04.223Z,84.60
2019-05-01T09:42:37.900Z,85.20
2019-05-01T09:45:16.942Z,83.80
2019-05-01T09:47:52.553Z,84.20
2019-05-01T09:50:30.516Z,87.50
2019-05-01T09:53:34.192Z,83.80
2019-05-01T09:56:13.598Z,84.90
2019-05-01T09:58:48.995Z,83.30
2019-05-01T10:01:31.730Z,82.10
2019-05-01T10:04:05.279Z,84.20
2019-05-01T10:06:39.487Z,82.80
2019-05-01T10:09:16.914Z,82.90
2019-05-01T10:11:52.107Z,85.20
2019-05-01T10:14:31.680Z,82.80
2019-05-01T10:17:05.020Z,82.10
2019-05-01T10:19:40.517Z,82.60
2019-05-01T10:22:16.295Z,83.40
2019-05-01T10:24:51.789Z,82.00
2019-05-01T10:27:30.979Z,79.60
2019-05-01T10:30:36.337Z,80.70
2019-05-01T10:33:16.078Z,77.70
2019-05-01T10:36:18.810Z,76.60
2019-05-01T10:38:52.797Z,78.50
2019-05-01T10:41:28.623Z,76.10
2019-05-01T10:44:05.184Z,77.20
2019-05-01T10:46:43.169Z,76.50
2019-05-01T10:49:18.549Z,76.10
2019-05-01T10:51:54.029Z,77.10
2019-05-01T10:54:29.440Z,77.60
2019-05-01T10:57:08.966Z,76.80
2019-05-01T10:59:44.399Z,74.80
2019-05-01T11:02:20.026Z,74.80
2019-05-01T11:04:55.523Z,76.40
2019-05-01T11:07:31.104Z,75.00
2019-05-01T11:10:08.113Z,78.40
2019-05-01T11:12:43.547Z,76.80
2019-05-01T11:15:19.473Z,75.40
2019-05-01T11:17:54.888Z,75.50
2019-05-01T11:20:30.322Z,73.70
2019-05-01T11:23:05.803Z,73.50
2019-05-01T11:25:41.480Z,74.70
2019-05-01T11:28:16.947Z,76.10
2019-05-01T11:30:52.338Z,76.90
2019-05-01T11:33:50.404Z,76.40
2019-05-01T11:36:48.215Z,75.30
2019-05-01T11:39:36.064Z,76.20
2019-05-01T11:42:13.858Z,76.50
2019-05-01T11:44:49.282Z,78.10
2019-05-01T11:47:25.814Z,76.40
2019-05-01T11:50:01.111Z,76.80
2019-05-01T11:52:36.599Z,76.90
2019-05-01T11:55:13.441Z,75.20
2019-05-01T11:57:48.988Z,75.60
2019-05-01T12:00:24.506Z,76.10
2019-05-01T12:02:59.938Z,76.40
2019-05-01T12:05:35.267Z,77.10
2019-05-01T12:08:10.667Z,75.90
2019-05-01T12:10:46.389Z,76.20
2019-05-01T12:13:21.915Z,75.30
2019-05-01T12:16:04.184Z,76.40
2019-05-01T12:18:39.536Z,76.20
2019-05-01T12:21:14.835Z,76.40
2019-05-01T12:23:50.501Z,78.90
2019-05-01T12:26:25.829Z,77.00
2019-05-01T12:29:01.393Z,78.00
2019-05-01T12:31:36.819Z,76.10
2019-05-01T12:34:12.295Z,74.50
2019-05-01T12:36:48.336Z,77.40
2019-05-01T12:39:23.862Z,75.30
2019-05-01T12:42:00.463Z,74.00
2019-05-01T12:44:35.884Z,74.20
2019-05-01T12:47:39.048Z,74.40
2019-05-01T12:50:15.594Z,73.00
2019-05-01T12:53:21.682Z,72.80
2019-05-01T12:56:15.955Z,71.90
2019-05-01T12:58:51.335Z,73.40
2019-05-01T13:01:26.814Z,71.90
2019-05-01T13:04:02.270Z,72.00
2019-05-01T13:06:48.881Z,71.50
2019-05-01T13:09:14.651Z,68.20
2019-05-01T13:11:50.202Z,68.00
2019-05-01T13:14:25.632Z,68.60
2019-05-01T13:17:01.030Z,67.60
2019-05-01T13:19:36.455Z,65.50
2019-05-01T13:22:11.927Z,64.60
2019-05-01T13:24:50.467Z,66.20
2019-05-01T13:27:33.555Z,66.20
2019-05-01T13:30:23.561Z,65.20
2019-05-01T13:33:00.603Z,64.40
2019-05-01T13:35:35.989Z,66.40
2019-05-01T13:38:11.583Z,63.60
2019-05-01T13:40:47.007Z,63.90
2019-05-01T13:43:22.666Z,64.80
2019-05-01T13:45:57.979Z,63.40
2019-05-01T13:48:33.431Z,63.50
2019-05-01T13:51:08.959Z,64.60
2019-05-01T13:53:44.358Z,62.30
2019-05-01T13:56:19.731Z,64.40
2019-05-01T13:58:55.170Z,64.20
2019-05-01T14:01:33.076Z,61.50
2019-05-01T14:04:08.682Z,60.70
2019-05-01T14:06:44.229Z,59.70
2019-05-01T14:09:29.668Z,59.70
2019-05-01T14:12:05.165Z,60.60
2019-05-01T14:14:40.660Z,59.60
2019-05-01T14:17:16.140Z,57.90
2019-05-01T14:20:01.938Z,57.60
2019-05-01T14:23:05.398Z,57.40
2019-05-01T14:25:58.547Z,58.50
2019-05-01T14:28:34.288Z,58.90
2019-05-01T14:31:09.724Z,58.50
2019-05-01T14:33:45.124Z,60.20
2019-05-01T14:36:27.893Z,58.50
2019-05-01T14:39:04.745Z,59.10
2019-05-01T14:41:41.915Z,58.60
2019-05-01T14:44:19.214Z,61.30
2019-05-01T14:46:55.333Z,58.10
2019-05-01T14:49:33.712Z,60.30
2019-05-01T14:52:14.116Z,58.20
2019-05-01T14:54:49.524Z,58.80
2019-05-01T14:57:24.878Z,59.10
2019-05-01T15:00:00.229Z,60.20
2019-05-01T15:02:37.247Z,60.60
2019-05-01T15:05:12.607Z,57.70
2019-05-01T15:07:48.013Z,57.90
2019-05-01T15:10:25.447Z,56.80
2019-05-01T15:13:03.235Z,57.50
2019-05-01T15:15:46.159Z,57.40
2019-05-01T15:18:29.583Z,60.00
2019-05-01T15:21:05.076Z,58.40
2019-05-01T15:23:52.581Z,57.50
2019-05-01T15:26:17.522Z,57.10
2019-05-01T15:28:53.340Z,58.40
2019-05-01T15:31:28.716Z,58.10
2019-05-01T15:34:04.290Z,59.40
2019-05-01T15:36:39.616Z,58.50
2019-05-01T15:39:49.646Z,57.60
2019-05-01T15:42:41.894Z,57.10
2019-05-01T15:45:17.408Z,59.30
2019-05-01T15:47:52.773Z,59.60
2019-05-01T15:50:31.258Z,59.60
2019-05-01T15:53:06.610Z,59.30
2019-05-01T15:55:42.009Z,60.90
2019-05-01T15:58:17.422Z,62.30
2019-05-01T16:00:52.925Z,59.00
2019-05-01T16:03:28.361Z,59.40
2019-05-01T16:06:03.762Z,58.40
2019-05-01T16:08:41.104Z,59.50
2019-05-01T16:11:43.988Z,60.40
2019-05-01T16:14:19.404Z,60.00
2019-05-01T16:16:54.957Z,59.90
2019-05-01T16:19:34.311Z,62.90
2019-05-01T16:22:09.733Z,61.10
2019-05-01T16:24:45.014Z,61.60
2019-05-01T16:27:20.514Z,62.30
2019-05-01T16:30:02.351Z,59.80
2019-05-01T16:32:37.961Z,63.00
2019-05-01T16:35:14.551Z,59.00
2019-05-01T16:37:53.765Z,61.80
2019-05-01T16:40:51.097Z,62.70
2019-05-01T16:43:26.397Z,65.60
2019-05-01T16:46:07.013Z,62.50
2019-05-01T16:48:42.419Z,57.80
2019-05-01T16:51:17.741Z,61.80
2019-05-01T16:53:53.003Z,60.50
2019-05-01T16:56:28.440Z,59.80
2019-05-01T16:59:03.762Z,57.50
2019-05-01T17:02:07.366Z,60.00
2019-05-01T17:04:48.669Z,60.70
2019-05-01T17:07:29.780Z,63.00
2019-05-01T17:10:22.614Z,63.00
2019-05-01T17:12:58.180Z,60.30
2019-05-01T17:15:40.809Z,62.90
2019-05-01T17:18:16.286Z,61.00
2019-05-01T17:20:51.781Z,62.10
2019-05-01T17:23:27.252Z,64.40
2019-05-01T17:26:02.929Z,63.10
2019-05-01T17:28:38.514Z,64.80
2019-05-01T17:31:14.124Z,65.80
2019-05-01T17:33:50.920Z,65.60
2019-05-01T17:36:26.727Z,67.20
2019-05-01T17:39:02.231Z,68.60
2019-05-01T17:41:39.135Z,67.00
2019-05-01T17:44:14.465Z,68.30
2019-05-01T17:46:53.147Z,68.90
2019-05-01T17:49:28.553Z,69.50
2019-05-01T17:52:04.189Z,69.20
2019-05-01T17:54:39.566Z,69.50
2019-05-01T17:57:15.087Z,69.50
2019-05-01T17:59:52.419Z,71.90
2019-05-01T18:02:34.776Z,70.80
2019-05-01T18:05:32.285Z,69.40
2019-05-01T18:08:07.729Z,69.00
2019-05-01T18:10:43.091Z,69.10
2019-05-01T18:13:18.645Z,70.40
2019-05-01T18:15:54.107Z,70.10
2019-05-01T18:18:29.586Z,71.80
2019-05-01T18:21:05.024Z,71.80
2019-05-01T18:24:00.057Z,71.40
2019-05-01T18:27:03.550Z,71.90
2019-05-01T18:29:47.010Z,71.70
2019-05-01T18:32:51.977Z,72.10
2019-05-01T18:35:24.456Z,73.70
2019-05-01T18:38:06.273Z,73.00
2019-05-01T18:40:45.373Z,73.80
2019-05-01T18:43:20.889Z,75.30
2019-05-01T18:45:57.964Z,74.90
2019-05-01T18:48:44.609Z,75.10
2019-05-01T18:51:21.455Z,76.60
2019-05-01T18:53:57.776Z,76.00
2019-05-01T18:56:38.147Z,76.20
2019-05-01T18:59:12.386Z,75.60
2019-05-01T19:01:49.721Z,76.70
2019-05-01T19:04:28.020Z,77.60
2019-05-01T19:07:04.459Z,77.90
2019-05-01T19:09:39.991Z,77.40
2019-05-01T19:12:16.094Z,78.20
2019-05-01T19:14:51.578Z,79.30
2019-05-01T19:17:27.094Z,78.70
2019-05-01T19:20:02.479Z,78.40
2019-05-01T19:22:37.932Z,78.40
2019-05-01T19:25:16.051Z,80.50
2019-05-01T19:27:51.572Z,80.00
2019-05-01T19:30:27.006Z,81.40
2019-05-01T19:33:02.707Z,81.70
2019-05-01T19:35:38.091Z,81.70
2019-05-01T19:38:14.427Z,81.40
2019-05-01T19:40:49.813Z,80.50
2019-05-01T19:43:25.339Z,82.20
2019-05-01T19:46:00.871Z,81.20
2019-05-01T19:48:36.496Z,81.20
2019-05-01T19:51:12.093Z,81.60
2019-05-01T19:53:51.752Z,81.70
2019-05-01T19:56:24.572Z,81.40
2019-05-01T19:59:00.208Z,82.30
2019-05-01T20:01:38.413Z,83.10
2019-05-01T20:04:15.134Z,83.60
2019-05-01T20:06:50.986Z,83.40
2019-05-01T20:09:26.786Z,83.30
2019-05-01T20:12:02.360Z,84.20
2019-05-01T20:14:37.882Z,84.40
2019-05-01T20:17:13.497Z,83.40
2019-05-01T20:19:48.989Z,84.20
2019-05-01T20:22:24.403Z,83.40
2019-05-01T20:24:59.910Z,84.20
2019-05-01T20:27:36.952Z,84.50
2019-05-01T20:30:13.770Z,84.10
2019-05-01T20:32:49.298Z,84.70
2019-05-01T20:35:28.458Z,85.60
2019-05-01T20:38:01.882Z,85.80
2019-05-01T20:40:38.397Z,86.10
2019-05-01T20:43:13.985Z,86.00
2019-05-01T20:45:51.246Z,87.30
2019-05-01T20:48:26.659Z,88.20
2019-05-01T20:51:02.061Z,87.90
2019-05-01T20:53:37.487Z,87.50
2019-05-01T20:56:33.438Z,88.40
2019-05-01T20:59:08.879Z,87.90
2019-05-01T21:01:44.297Z,87.50
2019-05-01T21:04:37.323Z,88.80
2019-05-01T21:07:33.576Z,88.80
2019-05-01T21:10:09.248Z,89.40
2019-05-01T21:12:44.892Z,89.00
2019-05-01T21:15:24.856Z,89.60
2019-05-01T21:17:57.384Z,90.00
2019-05-01T21:20:33.888Z,90.00
2019-05-01T21:23:11.656Z,90.50
2019-05-01T21:25:47.082Z,90.40
2019-05-01T21:28:24.013Z,90.20
2019-05-01T21:30:59.452Z,90.00
2019-05-01T21:33:34.815Z,90.40
2019-05-01T21:36:10.214Z,90.30
2019-05-01T21:38:46.714Z,90.40
2019-05-01T21:41:22.505Z,90.60
2019-05-01T21:43:57.951Z,90.60
2019-05-01T21:46:34.017Z,90.60
2019-05-01T21:49:09.663Z,91.10
2019-05-01T21:51:46.298Z,91.00
2019-05-01T21:54:22.033Z,91.00
2019-05-01T21:56:59.008Z,90.90
2019-05-01T21:59:35.317Z,91.10
2019-05-01T22:02:12.012Z,91.30
2019-05-01T22:04:47.475Z,91.50
2019-05-01T22:07:23.843Z,91.30
2019-05-01T22:10:00.026Z,91.80
2019-05-01T22:12:35.468Z,91.80
2019-05-01T22:15:19.242Z,91.80
2019-05-01T22:18:02.227Z,91.80
2019-05-01T22:20:42.763Z,92.20
2019-05-01T22:23:21.918Z,92.50
2019-05-01T22:25:58.797Z,92.50
2019-05-01T22:28:54.812Z,92.50
2019-05-01T22:31:52.899Z,92.40
2019-05-01T22:34:39.754Z,92.30
2019-05-01T22:37:15.162Z,92.90
2019-05-01T22:39:58.669Z,92.70
2019-05-01T22:42:34.089Z,92.60
2019-05-01T22:45:16.397Z,92.60
2019-05-01T22:47:52.277Z,92.70
2019-05-01T22:50:27.750Z,93.00
2019-05-01T22:53:03.198Z,93.00
2019-05-01T22:55:38.602Z,93.00
2019-05-01T22:58:14.061Z,93.00
2019-05-01T23:00:52.533Z,93.30
2019-05-01T23:03:40.820Z,93.30
2019-05-01T23:06:13.710Z,93.30
2019-05-01T23:08:49.101Z,93.50
2019-05-01T23:11:26.138Z,93.80
2019-05-01T23:14:08.657Z,93.80
2019-05-01T23:16:51.152Z,93.70
2019-05-01T23:19:27.839Z,93.50
2019-05-01T23:22:03.868Z,93.70
2019-05-01T23:24:39.324Z,93.60
2019-05-01T23:27:15.801Z,93.40
2019-05-01T23:29:51.221Z,93.30
2019-05-01T23:32:26.873Z,93.60
2019-05-01T23:35:02.305Z,93.80
2019-05-01T23:37:37.685Z,93.50
2019-05-01T23:40:15.507Z,93.60
2019-05-01T23:42:53.704Z,93.50
2019-05-01T23:45:27.324Z,93.80
2019-05-01T23:48:02.693Z,93.30
2019-05-01T23:50:38.177Z,93.50
2019-05-01T23:53:13.889Z,93.40
2019-05-01T23:55:54.720Z,93.40
2019-05-01T23:58:27.533Z,93.60
